Time;durP1;ratioP1;P1;durP2;ratioP2;P2;SDS_P1;SDS_P2;PMS_P1;PMS_P2;Temp;Humidity;BMP_temperature;BMP_pressure;BME280_temperature;BME280_humidity;BME280_pressure;Samples;Min_cycle;Max_cycle;Signal;HPM_P1;HPM_P2
2023/05/11 00:00:31;;;;;;;20.95;14.57;;;13.70;99.90;;;;;;12470573;28;20046;-40
2023/05/11 00:06:33;;;;;;;21.02;14.13;;;13.70;99.90;;;;;;12445858;28;20493;-40
2023/05/11 00:12:35;;;;;;;23.40;13.23;;;13.60;99.90;;;;;;12474872;28;20675;-41
2023/05/11 00:18:37;;;;;;;21.10;13.88;;;13.70;99.90;;;;;;12470245;28;20095;-39
2023/05/11 00:24:39;;;;;;;24.20;14.82;;;13.50;99.90;;;;;;12476579;28;20037;-39
2023/05/11 00:30:41;;;;;;;20.83;12.95;;;13.60;99.90;;;;;;12480506;28;20517;-40
2023/05/11 00:36:44;;;;;;;22.15;14.50;;;13.60;99.90;;;;;;12471284;28;20551;-39
2023/05/11 00:42:46;;;;;;;25.42;15.35;;;13.70;99.90;;;;;;12470146;28;20515;-39
2023/05/11 00:48:48;;;;;;;27.95;15.30;;;13.60;99.90;;;;;;12479046;28;20064;-39
2023/05/11 00:54:50;;;;;;;24.05;16.05;;;13.60;99.90;;;;;;12459226;28;20064;-39
2023/05/11 01:00:52;;;;;;;28.45;16.33;;;13.60;99.90;;;;;;12474373;28;20083;-40
2023/05/11 01:07:24;;;;;;;25.63;15.20;;;13.70;99.90;;;;;;12473454;28;20060;-39
2023/05/11 01:13:32;;;;;;;22.38;15.32;;;13.60;99.90;;;;;;12468748;28;20052;-39
2023/05/11 01:19:55;;;;;;;28.85;16.83;;;13.60;99.90;;;;;;12469921;28;20052;-39
2023/05/11 01:26:29;;;;;;;22.67;15.63;;;13.60;99.90;;;;;;12470932;28;20063;-41
2023/05/11 01:32:33;;;;;;;30.63;17.45;;;13.60;99.90;;;;;;12455955;28;20038;-39
2023/05/11 01:38:40;;;;;;;27.45;16.95;;;13.50;99.90;;;;;;12482437;28;20045;-39
2023/05/11 01:44:48;;;;;;;26.23;16.20;;;13.60;99.90;;;;;;12475564;28;20140;-39
2023/05/11 01:50:51;;;;;;;32.03;18.85;;;13.60;99.90;;;;;;12470743;28;20080;-40
2023/05/11 01:56:54;;;;;;;27.77;16.85;;;13.50;99.90;;;;;;12459407;28;20049;-40
2023/05/11 02:02:57;;;;;;;29.15;18.20;;;13.50;99.90;;;;;;12451276;28;20053;-39
2023/05/11 02:09:00;;;;;;;26.88;17.35;;;13.40;99.90;;;;;;12474027;28;20240;-40
2023/05/11 02:15:04;;;;;;;21.92;16.10;;;13.30;99.90;;;;;;12471765;28;20072;-40
2023/05/11 02:21:08;;;;;;;23.27;16.80;;;13.20;99.90;;;;;;12474796;28;20049;-40
2023/05/11 02:27:11;;;;;;;22.17;16.73;;;13.10;99.90;;;;;;12476564;28;20057;-39
2023/05/11 02:33:33;;;;;;;22.13;15.93;;;13.00;99.90;;;;;;12460445;28;20060;-40
2023/05/11 02:39:37;;;;;;;22.33;15.88;;;13.00;99.90;;;;;;12461898;28;20107;-39
2023/05/11 02:45:43;;;;;;;21.13;16.15;;;13.00;99.90;;;;;;12479214;28;21005;-39
2023/05/11 02:51:47;;;;;;;19.42;15.27;;;12.90;99.90;;;;;;12478218;28;20068;-39
2023/05/11 02:57:49;;;;;;;21.33;15.07;;;12.90;99.90;;;;;;12475527;28;20056;-41
2023/05/11 03:03:52;;;;;;;24.58;16.27;;;12.90;99.90;;;;;;12469308;28;20512;-40
2023/05/11 03:09:54;;;;;;;23.35;16.08;;;12.90;99.90;;;;;;12463492;28;20501;-40
2023/05/11 03:15:58;;;;;;;27.58;17.67;;;12.80;99.90;;;;;;12462316;28;20143;-40
2023/05/11 03:22:01;;;;;;;25.70;17.85;;;12.80;99.90;;;;;;12461300;28;20544;-39
2023/05/11 03:28:04;;;;;;;24.50;17.57;;;12.80;99.90;;;;;;12468597;28;20081;-39
2023/05/11 03:34:06;;;;;;;31.13;20.08;;;12.80;99.90;;;;;;12475709;28;20576;-39
2023/05/11 03:40:11;;;;;;;32.67;18.67;;;12.70;99.90;;;;;;12472559;28;20068;-40
2023/05/11 03:46:16;;;;;;;35.40;20.23;;;12.80;99.90;;;;;;12464440;28;20058;-39
2023/05/11 03:52:20;;;;;;;32.92;21.05;;;12.70;99.90;;;;;;12471876;28;20060;-39
2023/05/11 03:58:22;;;;;;;34.17;21.33;;;12.70;99.90;;;;;;12478506;28;20549;-40
2023/05/11 04:04:29;;;;;;;36.13;16.90;;;12.70;99.90;;;;;;12486497;28;20132;-40
2023/05/11 04:10:32;;;;;;;20.60;13.13;;;12.80;99.90;;;;;;12481118;28;20061;-39
2023/05/11 04:16:34;;;;;;;15.85;11.95;;;12.70;99.90;;;;;;12466050;28;20053;-38
2023/05/11 04:22:35;;;;;;;20.15;11.50;;;12.50;99.90;;;;;;12470890;28;20053;-41
2023/05/11 04:28:37;;;;;;;15.63;10.45;;;12.60;99.90;;;;;;12463112;28;20486;-39
2023/05/11 04:34:39;;;;;;;18.00;10.15;;;12.50;99.90;;;;;;12469784;28;20050;-39
2023/05/11 04:40:41;;;;;;;14.52;8.90;;;12.50;99.90;;;;;;12480347;28;20151;-39
2023/05/11 04:46:43;;;;;;;14.70;9.00;;;12.50;99.90;;;;;;12481163;28;20148;-40
2023/05/11 04:52:45;;;;;;;13.85;9.00;;;12.50;99.90;;;;;;12467217;28;20263;-40
2023/05/11 04:58:47;;;;;;;13.80;9.73;;;12.50;99.90;;;;;;12451267;28;20413;-38
2023/05/11 05:04:49;;;;;;;12.80;9.18;;;12.50;99.90;;;;;;12490914;28;20057;-39
2023/05/11 05:10:51;;;;;;;16.92;11.70;;;12.50;99.90;;;;;;12464488;28;20042;-38
2023/05/11 05:16:53;;;;;;;18.98;11.68;;;12.50;99.90;;;;;;12445088;28;20049;-40
2023/05/11 05:22:55;;;;;;;20.17;12.85;;;12.50;99.90;;;;;;12467927;28;20061;-39
2023/05/11 05:28:57;;;;;;;21.27;12.63;;;12.50;99.90;;;;;;12489401;28;20515;-38
2023/05/11 05:34:59;;;;;;;22.63;13.43;;;12.60;99.90;;;;;;12461274;28;20068;-38
2023/05/11 05:41:01;;;;;;;22.50;12.85;;;12.60;99.90;;;;;;12482785;28;20049;-39
2023/05/11 05:47:03;;;;;;;24.35;13.80;;;12.60;99.90;;;;;;12476076;28;20088;-39
2023/05/11 05:53:06;;;;;;;20.20;12.98;;;12.70;99.90;;;;;;12463824;28;20561;-39
2023/05/11 05:59:09;;;;;;;23.35;13.23;;;12.60;99.90;;;;;;12471371;28;20077;-39
2023/05/11 06:05:11;;;;;;;23.70;15.00;;;12.70;99.90;;;;;;12465107;28;20076;-40
2023/05/11 06:11:14;;;;;;;19.77;11.93;;;12.70;99.90;;;;;;12473021;28;20045;-38
2023/05/11 06:17:16;;;;;;;20.85;11.40;;;12.80;99.90;;;;;;12466104;28;20552;-39
2023/05/11 06:23:18;;;;;;;19.38;12.27;;;12.80;99.90;;;;;;12471607;28;20132;-39
2023/05/11 06:29:21;;;;;;;22.20;12.40;;;12.90;99.90;;;;;;12472084;28;20045;-40
2023/05/11 06:35:23;;;;;;;18.35;12.82;;;12.90;99.90;;;;;;12471132;28;20402;-39
2023/05/11 06:41:25;;;;;;;16.02;11.85;;;13.00;99.90;;;;;;12465310;28;20045;-39
2023/05/11 06:47:26;;;;;;;18.20;11.75;;;12.90;99.90;;;;;;12474480;28;20102;-39
2023/05/11 06:53:28;;;;;;;17.65;10.75;;;12.90;99.90;;;;;;12469722;28;20506;-40
2023/05/11 06:59:31;;;;;;;16.92;10.85;;;12.90;99.90;;;;;;12468582;28;20037;-39
2023/05/11 07:05:35;;;;;;;14.85;10.25;;;13.00;99.90;;;;;;12462520;28;20060;-39
2023/05/11 07:11:39;;;;;;;12.57;8.40;;;13.10;99.90;;;;;;12461977;28;20046;-39
2023/05/11 07:17:41;;;;;;;;;;;13.20;99.90;;;;;;12471132;28;20140;-39
2023/05/11 07:23:43;;;;;;;6.95;5.53;;;13.30;99.90;;;;;;12478890;28;19967;-39
2023/05/11 07:29:45;;;;;;;7.45;5.50;;;13.30;99.90;;;;;;12471431;28;20464;-39
2023/05/11 07:35:47;;;;;;;6.10;4.57;;;13.40;99.90;;;;;;12482805;28;20049;-39
2023/05/11 07:41:49;;;;;;;5.53;3.72;;;13.20;99.90;;;;;;12463195;28;20133;-39
2023/05/11 07:47:51;;;;;;;13.88;4.50;;;12.90;99.90;;;;;;12470557;28;20104;-39
2023/05/11 07:53:53;;;;;;;6.68;4.63;;;13.10;99.90;;;;;;12448977;28;20379;-39
2023/05/11 07:59:55;;;;;;;4.63;3.60;;;13.00;99.90;;;;;;12458607;28;20045;-39
2023/05/11 08:05:57;;;;;;;4.82;3.80;;;12.90;99.90;;;;;;12471860;28;20107;-38
2023/05/11 08:12:00;;;;;;;6.25;4.07;;;12.90;99.90;;;;;;12463821;28;20485;-39
2023/05/11 08:18:03;;;;;;;4.60;2.97;;;12.80;99.90;;;;;;12476604;28;20053;-39
2023/05/11 08:24:05;;;;;;;3.55;2.22;;;12.90;99.90;;;;;;12465437;28;20041;-39
2023/05/11 08:30:08;;;;;;;3.63;2.60;;;13.00;99.90;;;;;;12474197;28;20049;-39
2023/05/11 08:36:12;;;;;;;3.70;2.78;;;12.90;99.90;;;;;;12433973;28;20064;-40
2023/05/11 08:42:16;;;;;;;4.88;3.22;;;12.80;99.90;;;;;;12471462;28;20045;-38
2023/05/11 08:48:19;;;;;;;4.20;3.80;;;13.10;99.90;;;;;;12476034;28;20160;-39
2023/05/11 08:54:21;;;;;;;4.55;3.55;;;13.10;99.90;;;;;;12475589;28;20056;-40
2023/05/11 09:00:24;;;;;;;6.82;3.70;;;13.40;99.90;;;;;;12468625;28;20076;-40
2023/05/11 09:06:26;;;;;;;4.28;3.22;;;13.30;99.90;;;;;;12439013;28;20093;-38
2023/05/11 09:12:29;;;;;;;4.70;3.80;;;13.20;99.90;;;;;;12394023;28;20111;-39
2023/05/11 09:18:30;;;;;;;5.18;3.78;;;13.50;99.90;;;;;;12416663;28;20077;-39
2023/05/11 09:24:32;;;;;;;5.32;3.38;;;13.40;99.90;;;;;;12433512;28;20057;-38
2023/05/11 09:30:34;;;;;;;4.60;3.75;;;13.50;99.90;;;;;;12428095;28;20056;-39
2023/05/11 09:36:36;;;;;;;3.85;2.60;;;13.60;99.90;;;;;;12427954;28;20069;-39
2023/05/11 09:42:39;;;;;;;5.55;2.90;;;13.50;99.90;;;;;;12431901;28;20042;-40
2023/05/11 09:48:41;;;;;;;3.17;2.35;;;13.60;99.90;;;;;;12448653;28;20099;-38
2023/05/11 09:54:45;;;;;;;3.83;2.40;;;13.60;99.90;;;;;;12452059;28;20041;-39
2023/05/11 10:00:51;;;;;;;;;;;13.60;99.90;;;;;;12441649;28;20049;-38
2023/05/11 10:06:53;;;;;;;2.55;1.80;;;13.60;99.90;;;;;;12466310;28;19921;-39
2023/05/11 10:12:57;;;;;;;3.55;1.90;;;13.50;99.90;;;;;;12486561;28;20052;-39
2023/05/11 10:18:59;;;;;;;6.18;2.60;;;13.60;99.90;;;;;;12470584;28;20049;-40
2023/05/11 10:25:04;;;;;;;5.18;2.33;;;13.70;99.90;;;;;;12462025;28;20120;-39
2023/05/11 10:31:08;;;;;;;6.15;2.40;;;13.80;99.90;;;;;;12456320;28;20033;-39
2023/05/11 10:37:11;;;;;;;4.30;2.83;;;13.50;99.90;;;;;;12468576;28;20175;-39
2023/05/11 10:43:35;;;;;;;4.28;3.03;;;13.70;99.90;;;;;;12469594;28;20559;-40
2023/05/11 10:50:02;;;;;;;6.60;3.60;;;13.90;99.90;;;;;;12484356;28;20041;-39
2023/05/11 10:56:23;;;;;;;5.47;4.47;;;14.00;99.90;;;;;;12470702;28;20076;-39
2023/05/11 11:02:30;;;;;;;8.13;5.40;;;14.20;99.90;;;;;;12483963;28;20049;-39
2023/05/11 11:08:55;;;;;;;9.05;6.10;;;14.10;99.90;;;;;;12483508;28;20057;-40
2023/05/11 11:15:03;;;;;;;6.32;4.90;;;14.00;99.90;;;;;;12463207;28;20274;-39
2023/05/11 11:21:06;;;;;;;12.68;6.38;;;13.90;99.90;;;;;;12474150;28;20040;-39
2023/05/11 11:27:08;;;;;;;10.68;6.85;;;14.00;99.90;;;;;;12470559;28;20048;-39
2023/05/11 11:33:11;;;;;;;8.27;6.22;;;14.00;99.90;;;;;;12470649;28;20056;-39
2023/05/11 11:39:14;;;;;;;8.97;6.60;;;14.10;99.90;;;;;;12504859;28;20414;-39
2023/05/11 11:45:29;;;;;;;10.10;6.73;;;14.10;99.90;;;;;;12472477;28;20037;-40
2023/05/11 11:51:36;;;;;;;9.60;6.65;;;14.00;99.90;;;;;;12497439;28;20073;-39
2023/05/11 11:57:45;;;;;;;11.32;6.57;;;14.00;99.90;;;;;;12495057;28;20053;-39
2023/05/11 12:04:02;;;;;;;9.25;6.25;;;13.90;99.90;;;;;;12488031;28;20140;-40
2023/05/11 12:10:05;;;;;;;7.32;6.53;;;13.90;99.90;;;;;;12484064;28;20052;-39
2023/05/11 12:16:14;;;;;;;7.97;6.40;;;14.10;99.90;;;;;;12436592;28;20045;-40
2023/05/11 12:22:24;;;;;;;6.85;6.03;;;14.20;99.90;;;;;;12488509;28;20058;-39
2023/05/11 12:28:26;;;;;;;7.72;6.40;;;14.30;99.90;;;;;;12493063;28;20508;-39
2023/05/11 12:34:28;;;;;;;10.70;8.35;;;14.20;99.90;;;;;;12470513;28;20409;-39
2023/05/11 12:40:30;;;;;;;14.60;9.63;;;14.30;99.90;;;;;;12465487;28;20053;-39
2023/05/11 12:46:32;;;;;;;13.32;9.38;;;14.40;99.90;;;;;;12490485;28;20153;-39
2023/05/11 12:52:34;;;;;;;14.70;10.75;;;14.30;99.90;;;;;;12480999;28;20041;-39
2023/05/11 12:58:38;;;;;;;8.93;7.97;;;14.30;99.90;;;;;;12488372;28;20091;-40
2023/05/11 13:04:41;;;;;;;11.38;9.25;;;14.70;99.90;;;;;;12493595;28;20104;-40
2023/05/11 13:10:43;;;;;;;12.52;8.90;;;14.70;99.90;;;;;;12503134;28;20041;-39
2023/05/11 13:16:54;;;;;;;11.15;7.85;;;14.80;99.90;;;;;;12474245;28;20041;-39
2023/05/11 13:23:02;;;;;;;8.77;7.85;;;14.90;99.90;;;;;;12498916;28;20140;-39
2023/05/11 13:29:04;;;;;;;6.93;5.97;;;14.90;99.90;;;;;;12496626;28;20128;-40
2023/05/11 13:35:11;;;;;;;10.40;6.97;;;14.90;99.90;;;;;;12501726;28;20084;-39
2023/05/11 13:41:13;;;;;;;8.82;6.65;;;14.90;99.90;;;;;;12514338;28;20079;-39
2023/05/11 13:47:15;;;;;;;7.13;5.47;;;14.80;99.90;;;;;;12493238;28;20464;-39
2023/05/11 13:53:17;;;;;;;10.00;6.78;;;14.70;99.90;;;;;;12494040;28;20080;-39
2023/05/11 13:59:19;;;;;;;10.85;8.10;;;14.80;99.90;;;;;;12489906;28;20114;-39
2023/05/11 14:05:21;;;;;;;9.45;6.28;;;14.70;99.90;;;;;;12480398;28;20045;-40
2023/05/11 14:11:24;;;;;;;9.13;6.82;;;14.60;99.90;;;;;;12489989;28;20049;-39
2023/05/11 14:17:26;;;;;;;7.55;5.68;;;14.60;99.90;;;;;;12494253;28;20836;-39
2023/05/11 14:23:28;;;;;;;8.55;6.50;;;14.50;99.90;;;;;;12508610;28;20128;-39
2023/05/11 14:29:30;;;;;;;7.28;5.57;;;14.30;99.90;;;;;;12497827;28;21529;-40
2023/05/11 14:35:32;;;;;;;7.68;5.35;;;14.30;99.90;;;;;;12493551;28;20053;-39
2023/05/11 14:41:34;;;;;;;6.70;5.13;;;14.30;99.90;;;;;;12477984;28;20181;-39
2023/05/11 14:47:36;;;;;;;8.02;5.20;;;14.40;99.90;;;;;;12490073;28;20463;-39
2023/05/11 14:53:38;;;;;;;8.95;5.35;;;14.20;99.90;;;;;;12508959;28;20056;-39
2023/05/11 14:59:40;;;;;;;6.07;4.75;;;14.10;99.90;;;;;;12507550;28;20059;-40
2023/05/11 15:05:59;;;;;;;6.97;5.25;;;14.10;99.90;;;;;;12498141;28;20060;-40
2023/05/11 15:12:03;;;;;;;9.48;6.40;;;14.10;99.90;;;;;;12461664;28;20045;-41
2023/05/11 15:18:05;;;;;;;8.68;6.15;;;13.90;99.90;;;;;;12477976;28;20096;-39
2023/05/11 15:24:07;;;;;;;7.97;6.10;;;14.00;99.90;;;;;;12487112;28;20053;-40
2023/05/11 15:30:13;;;;;;;9.15;6.30;;;14.00;99.90;;;;;;12495890;28;20209;-39
2023/05/11 15:36:15;;;;;;;9.65;6.70;;;14.10;99.90;;;;;;12473846;28;20532;-40
2023/05/11 15:42:17;;;;;;;7.60;5.88;;;14.10;99.90;;;;;;12485388;28;20053;-39
2023/05/11 15:48:19;;;;;;;11.15;7.20;;;14.10;99.90;;;;;;12488298;28;20084;-39
2023/05/11 15:54:20;;;;;;;9.38;6.45;;;14.10;99.90;;;;;;12486519;28;20094;-39
2023/05/11 16:00:24;;;;;;;7.60;6.05;;;14.00;99.90;;;;;;12479743;28;20045;-39
2023/05/11 16:06:25;;;;;;;6.85;4.68;;;13.90;99.90;;;;;;12489856;28;20055;-39
2023/05/11 16:12:28;;;;;;;8.13;5.63;;;13.70;99.90;;;;;;12492718;28;20076;-40
2023/05/11 16:18:30;;;;;;;9.85;6.82;;;13.80;99.90;;;;;;12454065;28;20113;-40
2023/05/11 16:24:32;;;;;;;9.13;5.90;;;13.80;99.90;;;;;;12459384;28;20064;-40
2023/05/11 16:30:35;;;;;;;10.15;6.70;;;13.80;99.90;;;;;;12485843;28;20088;-40
2023/05/11 16:36:37;;;;;;;7.88;5.40;;;13.80;99.90;;;;;;12489799;28;20512;-40
2023/05/11 16:42:39;;;;;;;12.43;7.55;;;13.80;99.90;;;;;;12475686;28;20079;-40
2023/05/11 16:48:41;;;;;;;14.43;8.07;;;13.70;99.90;;;;;;12469745;28;20057;-40
2023/05/11 16:54:43;;;;;;;18.60;10.15;;;13.70;99.90;;;;;;12503948;28;20101;-41
2023/05/11 17:00:45;;;;;;;15.35;9.82;;;13.70;99.90;;;;;;12465919;28;20404;-40
2023/05/11 17:06:47;;;;;;;19.48;11.50;;;13.60;99.90;;;;;;12486568;28;20108;-40
2023/05/11 17:12:49;;;;;;;20.88;11.75;;;13.60;99.90;;;;;;12440267;28;20057;-39
2023/05/11 17:18:50;;;;;;;21.48;12.20;;;13.70;99.90;;;;;;12448276;28;20050;-40
2023/05/11 17:24:52;;;;;;;20.17;12.02;;;13.60;99.90;;;;;;12435172;28;20053;-39
2023/05/11 17:30:54;;;;;;;23.77;13.23;;;13.50;99.90;;;;;;12451011;28;20578;-39
2023/05/11 17:36:57;;;;;;;21.52;12.30;;;13.50;99.90;;;;;;12446783;28;20053;-40
2023/05/11 17:42:59;;;;;;;20.50;12.43;;;13.60;99.90;;;;;;12441367;28;20302;-39
2023/05/11 17:49:01;;;;;;;20.67;12.30;;;13.50;99.90;;;;;;12448571;28;20056;-39
2023/05/11 17:55:03;;;;;;;24.88;13.90;;;13.50;99.90;;;;;;12425953;28;20046;-39
2023/05/11 18:01:12;;;;;;;25.63;13.80;;;13.50;99.90;;;;;;12460504;28;20069;-39
2023/05/11 18:07:14;;;;;;;30.30;14.52;;;13.40;99.90;;;;;;12486987;28;20057;-40
2023/05/11 18:13:16;;;;;;;22.80;13.73;;;13.40;99.90;;;;;;12461583;28;20102;-40
2023/05/11 18:19:18;;;;;;;24.20;13.88;;;13.40;99.90;;;;;;12487315;28;20045;-39
2023/05/11 18:25:20;;;;;;;25.92;15.00;;;13.30;99.90;;;;;;12483617;28;20076;-40
2023/05/11 18:31:22;;;;;;;34.35;15.57;;;13.40;99.90;;;;;;12488428;28;20144;-39
2023/05/11 18:37:24;;;;;;;31.13;17.17;;;13.40;99.90;;;;;;12494474;28;20365;-40
2023/05/11 18:43:26;;;;;;;32.40;18.08;;;13.30;99.90;;;;;;12473261;28;20180;-39
2023/05/11 18:49:28;;;;;;;39.65;19.45;;;13.40;99.90;;;;;;12489703;28;20077;-40
2023/05/11 18:55:30;;;;;;;40.28;19.27;;;13.40;99.90;;;;;;12478114;28;20095;-39
2023/05/11 19:01:50;;;;;;;35.60;18.15;;;13.40;99.90;;;;;;12490375;28;20053;-39
2023/05/11 19:07:52;;;;;;;36.33;19.17;;;13.40;99.90;;;;;;12452969;28;20057;-39
2023/05/11 19:13:54;;;;;;;45.38;19.08;;;13.30;99.90;;;;;;12422468;28;20076;-39
2023/05/11 19:19:55;;;;;;;43.88;20.52;;;13.40;99.90;;;;;;12444233;28;20042;-40
2023/05/11 19:25:58;;;;;;;44.50;23.17;;;13.40;99.90;;;;;;12426758;28;20055;-39
2023/05/11 19:32:00;;;;;;;42.67;22.67;;;13.30;99.90;;;;;;12437283;28;20045;-39
2023/05/11 19:38:04;;;;;;;42.90;22.70;;;13.40;99.90;;;;;;12447740;28;20041;-39
2023/05/11 19:44:06;;;;;;;45.28;22.65;;;13.30;99.90;;;;;;12437328;28;20132;-39
2023/05/11 19:50:09;;;;;;;44.22;24.42;;;13.30;99.90;;;;;;12452577;28;20164;-39
2023/05/11 19:56:11;;;;;;;49.13;25.17;;;13.30;99.90;;;;;;12443261;28;20128;-39
2023/05/11 20:02:13;;;;;;;47.30;27.42;;;13.30;99.90;;;;;;12443223;28;20125;-39
2023/05/11 20:08:15;;;;;;;50.00;27.40;;;13.30;99.90;;;;;;12466436;28;20061;-39
2023/05/11 20:14:17;;;;;;;54.03;29.98;;;13.40;99.90;;;;;;12476312;28;20045;-39
2023/05/11 20:20:19;;;;;;;68.72;29.60;;;13.30;99.90;;;;;;12493877;28;20045;-39
2023/05/11 20:26:21;;;;;;;59.42;29.95;;;13.40;99.90;;;;;;12487099;28;20100;-39
2023/05/11 20:32:24;;;;;;;65.72;30.30;;;13.40;99.90;;;;;;12494850;28;20490;-40
2023/05/11 20:38:26;;;;;;;57.45;29.75;;;13.30;99.90;;;;;;12494708;28;20688;-39
2023/05/11 20:44:29;;;;;;;50.75;29.33;;;13.30;99.90;;;;;;12476093;28;20140;-39
2023/05/11 20:50:31;;;;;;;47.45;28.25;;;13.30;99.90;;;;;;12499913;28;20055;-39
2023/05/11 20:56:33;;;;;;;58.00;30.13;;;13.30;99.90;;;;;;12500945;28;20049;-39
2023/05/11 21:02:35;;;;;;;50.35;30.38;;;13.30;99.90;;;;;;12494444;28;20049;-39
2023/05/11 21:08:37;;;;;;;52.67;30.58;;;13.30;99.90;;;;;;12484120;28;20135;-39
2023/05/11 21:14:39;;;;;;;56.33;30.55;;;13.30;99.90;;;;;;12498049;28;20055;-39
2023/05/11 21:20:41;;;;;;;58.15;32.78;;;13.30;99.90;;;;;;12510529;28;20048;-39
2023/05/11 21:26:44;;;;;;;60.25;32.15;;;13.30;99.90;;;;;;12509125;28;20056;-39
2023/05/11 21:32:49;;;;;;;61.60;32.55;;;13.30;99.90;;;;;;12493553;28;20056;-38
2023/05/11 21:38:51;;;;;;;62.08;33.83;;;13.40;99.90;;;;;;12491418;28;20456;-38
2023/05/11 21:44:53;;;;;;;71.82;32.92;;;13.40;99.90;;;;;;12491488;28;20044;-39
2023/05/11 21:50:55;;;;;;;60.15;33.35;;;13.40;99.90;;;;;;12488389;28;20050;-39
2023/05/11 21:56:57;;;;;;;73.95;33.70;;;13.40;99.90;;;;;;12480430;28;20076;-38
2023/05/11 22:03:00;;;;;;;72.68;35.13;;;13.40;99.90;;;;;;12493864;28;20100;-39
2023/05/11 22:09:03;;;;;;;72.78;35.25;;;13.40;99.90;;;;;;12495501;28;20095;-39
2023/05/11 22:15:07;;;;;;;70.80;34.78;;;13.30;99.90;;;;;;12480288;28;20037;-39
2023/05/11 22:21:09;;;;;;;64.47;33.65;;;13.30;99.90;;;;;;12493012;28;20107;-39
2023/05/11 22:27:14;;;;;;;68.85;36.40;;;13.30;99.90;;;;;;12487326;28;20049;-39
2023/05/11 22:33:16;;;;;;;65.60;34.38;;;13.20;99.90;;;;;;12496925;28;20053;-39
2023/05/11 22:39:18;;;;;;;69.60;34.95;;;13.20;99.90;;;;;;12492740;28;20049;-39
2023/05/11 22:45:20;;;;;;;62.40;34.00;;;13.20;99.90;;;;;;12484257;28;20267;-39
2023/05/11 22:51:22;;;;;;;51.90;32.92;;;13.10;99.90;;;;;;12483117;28;20046;-39
2023/05/11 22:57:27;;;;;;;52.35;31.63;;;13.20;99.90;;;;;;12481290;28;20060;-39
2023/05/11 23:03:29;;;;;;;50.05;29.98;;;13.20;99.90;;;;;;12471531;28;20136;-39
2023/05/11 23:09:31;;;;;;;47.20;30.35;;;13.20;99.90;;;;;;12498219;28;20053;-39
2023/05/11 23:15:32;;;;;;;43.10;28.23;;;13.20;99.90;;;;;;12486901;28;20063;-39
2023/05/11 23:21:34;;;;;;;46.72;30.17;;;13.20;99.90;;;;;;12487972;28;20046;-39
2023/05/11 23:27:36;;;;;;;41.45;27.80;;;13.10;99.90;;;;;;12485189;28;20140;-39
2023/05/11 23:33:38;;;;;;;45.85;28.35;;;13.10;99.90;;;;;;12493423;28;20076;-39
2023/05/11 23:39:40;;;;;;;44.67;28.02;;;13.10;99.90;;;;;;12490128;28;20135;-39
2023/05/11 23:45:42;;;;;;;44.67;28.27;;;13.00;99.90;;;;;;12489186;28;20442;-39
2023/05/11 23:51:44;;;;;;;46.33;26.20;;;13.00;99.90;;;;;;12484454;28;20037;-39
2023/05/11 23:57:46;;;;;;;45.33;28.35;;;12.90;99.90;;;;;;12489645;28;20045;-39
